createdAt,value
2019-02-18T00:01:32.161Z,4.20
2019-02-18T00:03:37.801Z,4.20
2019-02-18T00:05:43.809Z,4.60
2019-02-18T00:07:50.693Z,4.30
2019-02-18T00:09:58.176Z,4.30
2019-02-18T00:12:05.276Z,4.10
2019-02-18T00:14:11.618Z,3.60
2019-02-18T00:16:17.756Z,3.30
2019-02-18T00:18:23.442Z,3.10
2019-02-18T00:20:29.280Z,2.90
2019-02-18T00:22:35.276Z,3.30
2019-02-18T00:24:40.722Z,3.30
2019-02-18T00:26:47.494Z,3.20
2019-02-18T00:28:58.553Z,3.00
2019-02-18T00:31:03.734Z,2.80
2019-02-18T00:33:09.277Z,2.80
2019-02-18T00:35:24.054Z,2.60
2019-02-18T00:37:29.795Z,2.80
2019-02-18T00:39:35.302Z,2.70
2019-02-18T00:41:40.733Z,2.60
2019-02-18T00:43:47.125Z,2.50
2019-02-18T00:45:52.877Z,2.50
2019-02-18T00:47:58.573Z,2.10
2019-02-18T00:50:04.339Z,2.20
2019-02-18T00:52:09.973Z,2.80
2019-02-18T00:54:24.206Z,2.50
2019-02-18T00:56:30.491Z,2.10
2019-02-18T00:58:35.910Z,2.10
2019-02-18T01:00:43.961Z,2.20
2019-02-18T01:02:50.019Z,2.60
2019-02-18T01:04:55.554Z,2.60
2019-02-18T01:07:01.483Z,2.70
2019-02-18T01:09:08.740Z,2.50
2019-02-18T01:11:14.517Z,2.40
2019-02-18T01:13:20.475Z,2.20
2019-02-18T01:15:26.051Z,2.30
2019-02-18T01:17:32.269Z,2.20
2019-02-18T01:19:38.918Z,2.10
2019-02-18T01:21:44.334Z,2.00
2019-02-18T01:23:50.299Z,2.10
2019-02-18T01:26:03.499Z,2.10
2019-02-18T01:28:08.889Z,2.10
2019-02-18T01:30:16.314Z,2.00
2019-02-18T01:32:21.751Z,2.40
2019-02-18T01:34:27.474Z,2.60
2019-02-18T01:36:33.600Z,2.50
2019-02-18T01:38:42.027Z,2.60
2019-02-18T01:40:47.482Z,2.70
2019-02-18T01:42:52.914Z,2.50
2019-02-18T01:45:01.699Z,2.50
2019-02-18T01:47:09.185Z,2.40
2019-02-18T01:49:14.798Z,2.50
2019-02-18T01:51:20.294Z,2.70
2019-02-18T01:53:26.482Z,2.40
2019-02-18T01:55:32.025Z,2.50
2019-02-18T01:57:37.484Z,2.40
2019-02-18T01:59:42.940Z,3.00
2019-02-18T02:01:48.962Z,2.90
2019-02-18T02:03:55.329Z,2.80
2019-02-18T02:06:01.318Z,2.90
2019-02-18T02:08:06.991Z,2.90
2019-02-18T02:10:15.862Z,3.00
2019-02-18T02:12:21.578Z,3.20
2019-02-18T02:14:27.009Z,2.80
2019-02-18T02:16:35.023Z,3.00
2019-02-18T02:18:40.555Z,3.40
2019-02-18T02:20:46.037Z,3.60
2019-02-18T02:22:53.872Z,3.70
2019-02-18T02:24:59.490Z,3.30
2019-02-18T02:27:05.481Z,3.20
2019-02-18T02:29:11.945Z,2.90
2019-02-18T02:31:17.651Z,2.90
2019-02-18T02:33:23.546Z,2.70
2019-02-18T02:35:35.043Z,2.80
2019-02-18T02:37:40.462Z,2.90
2019-02-18T02:39:45.877Z,2.90
2019-02-18T02:41:53.313Z,3.10
2019-02-18T02:43:58.721Z,3.30
2019-02-18T02:46:04.124Z,3.30
2019-02-18T02:48:12.722Z,3.40
2019-02-18T02:50:18.190Z,3.40
2019-02-18T02:52:24.922Z,3.30
2019-02-18T02:54:30.459Z,3.30
2019-02-18T02:56:37.555Z,3.30
2019-02-18T02:58:43.782Z,3.00
2019-02-18T03:00:56.957Z,3.00
2019-02-18T03:03:02.445Z,2.80
2019-02-18T03:05:08.665Z,2.90
2019-02-18T03:07:14.285Z,3.00
2019-02-18T03:09:19.723Z,3.30
2019-02-18T03:11:25.277Z,3.60
2019-02-18T03:13:33.467Z,3.30
2019-02-18T03:15:40.631Z,3.30
2019-02-18T03:17:46.303Z,3.50
2019-02-18T03:19:51.802Z,3.60
2019-02-18T03:21:57.514Z,3.50
2019-02-18T03:24:03.050Z,3.70
2019-02-18T03:26:09.273Z,3.50
2019-02-18T03:28:54.794Z,3.50
2019-02-18T03:31:09.965Z,3.60
2019-02-18T03:33:18.305Z,3.60
2019-02-18T03:35:24.656Z,3.50
2019-02-18T03:37:30.387Z,3.30
2019-02-18T03:39:36.621Z,3.40
2019-02-18T03:41:45.585Z,3.30
2019-02-18T03:43:51.679Z,3.20
2019-02-18T03:45:57.358Z,3.40
2019-02-18T03:48:03.853Z,3.40
2019-02-18T03:50:11.072Z,3.40
2019-02-18T03:52:16.706Z,3.50
2019-02-18T03:54:22.117Z,3.40
2019-02-18T03:56:35.666Z,3.10
2019-02-18T03:58:41.270Z,2.90
2019-02-18T04:00:46.790Z,3.10
2019-02-18T04:02:52.971Z,3.50
2019-02-18T04:04:58.373Z,3.60
2019-02-18T04:07:04.226Z,3.50
2019-02-18T04:09:10.053Z,3.40
2019-02-18T04:11:16.011Z,3.30
2019-02-18T04:13:22.154Z,3.20
2019-02-18T04:15:27.702Z,3.00
2019-02-18T04:17:33.227Z,2.80
2019-02-18T04:19:38.774Z,2.70
2019-02-18T04:21:52.336Z,2.60
2019-02-18T04:23:58.198Z,2.50
2019-02-18T04:26:03.890Z,2.40
2019-02-18T04:28:10.575Z,2.30
2019-02-18T04:30:16.018Z,2.20
2019-02-18T04:32:21.417Z,2.20
2019-02-18T04:34:26.826Z,2.20
2019-02-18T04:36:32.306Z,2.10
2019-02-18T04:38:37.817Z,2.10
2019-02-18T04:40:44.654Z,2.30
2019-02-18T04:42:50.678Z,2.10
2019-02-18T04:44:56.193Z,2.20
2019-02-18T04:47:05.012Z,2.20
2019-02-18T04:49:12.101Z,2.40
2019-02-18T04:51:17.528Z,2.40
2019-02-18T04:53:23.166Z,2.50
2019-02-18T04:55:28.790Z,2.70
2019-02-18T04:57:34.303Z,2.60
2019-02-18T04:59:39.849Z,2.50
2019-02-18T05:01:45.269Z,2.40
2019-02-18T05:03:51.983Z,2.60
2019-02-18T05:05:57.971Z,2.50
2019-02-18T05:08:03.464Z,2.50
2019-02-18T05:10:09.705Z,2.50
2019-02-18T05:12:17.015Z,2.40
2019-02-18T05:14:22.910Z,2.40
2019-02-18T05:16:28.311Z,2.40
2019-02-18T05:18:33.754Z,2.50
2019-02-18T05:20:39.305Z,2.30
2019-02-18T05:22:44.830Z,2.60
2019-02-18T05:24:52.365Z,2.80
2019-02-18T05:26:58.468Z,2.70
2019-02-18T05:29:04.064Z,2.40
2019-02-18T05:31:09.693Z,2.30
2019-02-18T05:33:15.154Z,2.10
2019-02-18T05:35:20.666Z,2.10
2019-02-18T05:37:33.118Z,2.10
2019-02-18T05:39:38.961Z,2.40
2019-02-18T05:41:44.599Z,2.50
2019-02-18T05:43:51.203Z,2.60
2019-02-18T05:45:57.097Z,2.80
2019-02-18T05:48:02.723Z,2.90
2019-02-18T05:50:08.281Z,2.90
2019-02-18T05:52:14.083Z,2.70
2019-02-18T05:54:20.428Z,2.50
2019-02-18T05:56:26.175Z,2.70
2019-02-18T05:58:32.435Z,2.60
2019-02-18T06:00:38.112Z,2.60
2019-02-18T06:02:56.057Z,2.50
2019-02-18T06:05:01.583Z,2.70
2019-02-18T06:07:07.718Z,2.80
2019-02-18T06:09:13.781Z,2.80
2019-02-18T06:11:19.673Z,2.60
2019-02-18T06:13:25.739Z,2.70
2019-02-18T06:15:32.994Z,2.40
2019-02-18T06:17:42.498Z,2.30
2019-02-18T06:19:47.946Z,2.30
2019-02-18T06:21:53.520Z,2.60
2019-02-18T06:23:59.306Z,2.80
2019-02-18T06:26:04.804Z,2.70
2019-02-18T06:28:10.315Z,2.70
2019-02-18T06:30:16.035Z,2.80
2019-02-18T06:32:21.475Z,2.50
2019-02-18T06:34:27.167Z,2.60
2019-02-18T06:36:32.818Z,2.50
2019-02-18T06:38:38.328Z,2.90
2019-02-18T06:40:49.940Z,2.90
2019-02-18T06:42:55.594Z,2.80
2019-02-18T06:45:23.137Z,3.40
2019-02-18T06:47:30.078Z,3.20
2019-02-18T06:49:35.702Z,3.00
2019-02-18T06:51:45.294Z,3.00
2019-02-18T06:53:51.857Z,3.10
2019-02-18T06:55:59.820Z,3.40
2019-02-18T06:58:24.342Z,3.30
2019-02-18T07:00:44.687Z,3.50
2019-02-18T07:03:08.113Z,3.80
2019-02-18T07:05:30.150Z,4.10
2019-02-18T07:08:00.654Z,4.10
2019-02-18T07:10:12.679Z,4.20
2019-02-18T07:12:30.014Z,4.20
2019-02-18T07:14:35.540Z,4.30
2019-02-18T07:16:40.967Z,4.30
2019-02-18T07:18:49.232Z,4.30
2019-02-18T07:20:54.641Z,4.40
2019-02-18T07:23:00.210Z,4.60
2019-02-18T07:25:07.693Z,4.80
2019-02-18T07:27:13.594Z,4.90
2019-02-18T07:29:19.150Z,4.80
2019-02-18T07:31:27.778Z,4.90
2019-02-18T07:33:33.283Z,5.30
2019-02-18T07:35:38.838Z,6.50
2019-02-18T07:37:44.466Z,7.90
2019-02-18T07:39:49.885Z,8.50
2019-02-18T07:41:56.778Z,9.80
2019-02-18T07:44:02.338Z,10.50
2019-02-18T07:46:08.498Z,10.70
2019-02-18T07:48:14.555Z,11.10
2019-02-18T07:50:21.086Z,11.90
2019-02-18T07:52:26.655Z,11.30
2019-02-18T07:54:32.099Z,12.10
2019-02-18T07:56:37.421Z,12.50
2019-02-18T07:58:42.813Z,12.40
2019-02-18T08:00:48.457Z,11.60
2019-02-18T08:02:54.102Z,11.80
2019-02-18T08:04:59.254Z,12.00
2019-02-18T08:07:05.162Z,12.10
2019-02-18T08:09:10.439Z,12.70
2019-02-18T08:11:16.562Z,13.90
2019-02-18T08:13:22.949Z,14.40
2019-02-18T08:15:28.463Z,13.90
2019-02-18T08:17:33.606Z,14.50
2019-02-18T08:19:38.975Z,14.80
2019-02-18T08:21:44.286Z,16.30
2019-02-18T08:23:59.416Z,16.10
2019-02-18T08:25:56.367Z,15.90
2019-02-18T08:28:01.618Z,17.90
2019-02-18T08:30:08.429Z,16.80
2019-02-18T08:32:13.660Z,16.90
2019-02-18T08:34:18.946Z,16.40
2019-02-18T08:36:24.117Z,16.60
2019-02-18T08:38:31.015Z,16.60
2019-02-18T08:40:37.245Z,16.70
2019-02-18T08:42:42.495Z,19.20
2019-02-18T08:44:47.702Z,18.80
2019-02-18T08:46:52.958Z,18.90
2019-02-18T08:48:58.266Z,19.70
2019-02-18T08:51:03.854Z,19.30
2019-02-18T08:53:09.032Z,18.40
2019-02-18T08:55:14.319Z,18.50
2019-02-18T08:57:19.487Z,18.20
2019-02-18T08:59:26.531Z,19.00
2019-02-18T09:01:32.020Z,19.50
2019-02-18T09:03:37.389Z,20.10
2019-02-18T09:05:43.312Z,23.10
2019-02-18T09:07:48.680Z,21.60
2019-02-18T09:09:53.879Z,21.40
2019-02-18T09:11:59.183Z,23.30
2019-02-18T09:14:04.382Z,23.60
2019-02-18T09:16:09.750Z,23.80
2019-02-18T09:18:15.846Z,25.00
2019-02-18T09:20:21.104Z,26.20
2019-02-18T09:22:48.441Z,26.50
2019-02-18T09:25:06.486Z,26.40
2019-02-18T09:27:11.666Z,25.10
2019-02-18T09:29:16.822Z,23.80
2019-02-18T09:31:27.314Z,24.10
2019-02-18T09:33:33.571Z,24.20
2019-02-18T09:35:38.698Z,23.90
2019-02-18T09:37:45.999Z,23.60
2019-02-18T09:39:51.162Z,22.30
2019-02-18T09:41:56.300Z,21.60
2019-02-18T09:44:03.293Z,21.80
2019-02-18T09:46:08.737Z,22.00
2019-02-18T09:48:14.271Z,22.30
2019-02-18T09:50:25.738Z,21.30
2019-02-18T09:52:30.965Z,22.40
2019-02-18T09:54:36.286Z,23.50
2019-02-18T09:56:41.706Z,22.60
2019-02-18T09:58:46.933Z,22.90
2019-02-18T10:00:53.261Z,24.80
2019-02-18T10:03:07.235Z,24.30
2019-02-18T10:05:12.681Z,25.00
2019-02-18T10:07:17.980Z,26.00
2019-02-18T10:09:29.384Z,26.10
2019-02-18T10:11:34.567Z,26.40
2019-02-18T10:13:41.352Z,26.70
2019-02-18T10:15:47.907Z,26.20
2019-02-18T10:17:53.127Z,25.60
2019-02-18T10:19:58.411Z,26.10
2019-02-18T10:22:03.972Z,26.50
2019-02-18T10:24:10.159Z,27.10
2019-02-18T10:26:15.351Z,27.20
2019-02-18T10:28:21.442Z,26.60
2019-02-18T10:30:26.622Z,25.90
2019-02-18T10:32:32.690Z,26.50
2019-02-18T10:34:38.662Z,26.50
2019-02-18T10:36:43.966Z,26.60
2019-02-18T10:38:49.334Z,27.50
2019-02-18T10:40:54.470Z,27.20
2019-02-18T10:42:59.625Z,26.70
2019-02-18T10:45:05.441Z,26.30
2019-02-18T10:47:13.241Z,27.40
2019-02-18T10:49:22.232Z,27.30
2019-02-18T10:51:25.534Z,25.90
2019-02-18T10:53:30.783Z,26.50
2019-02-18T10:55:36.055Z,26.00
2019-02-18T10:57:41.286Z,26.50
2019-02-18T10:59:48.056Z,27.10
2019-02-18T11:01:53.253Z,26.20
2019-02-18T11:03:58.605Z,27.00
2019-02-18T11:06:04.135Z,27.20
2019-02-18T11:08:09.406Z,25.90
2019-02-18T11:10:16.334Z,26.90
2019-02-18T11:12:21.642Z,24.70
2019-02-18T11:14:27.023Z,26.90
2019-02-18T11:16:32.598Z,26.70
2019-02-18T11:18:38.814Z,26.50
2019-02-18T11:20:44.562Z,25.60
2019-02-18T11:22:49.797Z,24.90
2019-02-18T11:24:57.904Z,24.30
2019-02-18T11:27:03.075Z,23.30
2019-02-18T11:29:08.273Z,23.10
2019-02-18T11:31:13.506Z,22.70
2019-02-18T11:33:19.041Z,21.90
2019-02-18T11:35:24.365Z,21.50
2019-02-18T11:37:31.816Z,21.70
2019-02-18T11:39:37.030Z,21.50
2019-02-18T11:41:42.437Z,21.30
2019-02-18T11:43:48.762Z,23.00
2019-02-18T11:45:54.286Z,23.70
2019-02-18T11:47:59.530Z,21.80
2019-02-18T11:50:05.450Z,21.80
2019-02-18T11:52:10.633Z,22.30
2019-02-18T11:54:16.143Z,20.90
2019-02-18T11:56:24.461Z,19.90
2019-02-18T11:58:29.810Z,18.90
2019-02-18T12:00:34.986Z,19.10
2019-02-18T12:02:40.175Z,19.00
2019-02-18T12:04:45.713Z,20.00
2019-02-18T12:06:50.935Z,20.90
2019-02-18T12:08:56.809Z,21.70
2019-02-18T12:11:02.040Z,22.70
2019-02-18T12:13:07.361Z,23.70
2019-02-18T12:15:12.603Z,23.60
2019-02-18T12:17:20.529Z,23.90
2019-02-18T12:19:25.199Z,23.90
2019-02-18T12:21:32.850Z,23.30
2019-02-18T12:23:38.156Z,22.60
2019-02-18T12:25:43.526Z,21.90
2019-02-18T12:27:48.890Z,21.00
2019-02-18T12:29:54.479Z,22.60
2019-02-18T12:31:59.714Z,22.70
2019-02-18T12:34:06.095Z,22.20
2019-02-18T12:36:11.379Z,22.90
2019-02-18T12:38:17.490Z,21.90
2019-02-18T12:40:24.302Z,21.10
2019-02-18T12:42:29.526Z,21.80
2019-02-18T12:44:34.664Z,21.20
2019-02-18T12:46:40.004Z,20.80
2019-02-18T12:48:45.406Z,21.10
2019-02-18T12:50:50.662Z,23.00
2019-02-18T12:52:56.221Z,23.60
2019-02-18T12:55:01.526Z,25.20
2019-02-18T12:57:07.129Z,25.50
2019-02-18T12:59:12.330Z,26.10
2019-02-18T13:01:17.691Z,24.40
2019-02-18T13:03:22.945Z,24.90
2019-02-18T13:05:30.001Z,26.20
2019-02-18T13:07:36.569Z,26.30
2019-02-18T13:09:41.937Z,26.60
2019-02-18T13:11:47.150Z,27.20
2019-02-18T13:13:52.365Z,26.80
2019-02-18T13:15:57.618Z,27.00
2019-02-18T13:18:05.888Z,27.10
2019-02-18T13:20:11.179Z,26.70
2019-02-18T13:22:16.482Z,26.80
2019-02-18T13:24:22.025Z,25.40
2019-02-18T13:26:27.252Z,26.70
2019-02-18T13:28:32.895Z,27.50
2019-02-18T13:30:38.569Z,26.50
2019-02-18T13:32:44.273Z,26.40
2019-02-18T13:34:49.523Z,26.00
2019-02-18T13:36:58.769Z,26.00
2019-02-18T13:39:05.340Z,25.20
2019-02-18T13:41:11.483Z,24.60
2019-02-18T13:43:17.394Z,24.20
2019-02-18T13:45:22.793Z,23.20
2019-02-18T13:47:28.005Z,22.10
2019-02-18T13:49:33.405Z,22.60
2019-02-18T13:51:38.769Z,22.40
2019-02-18T13:53:43.984Z,21.90
2019-02-18T13:55:50.330Z,21.40
2019-02-18T13:57:55.706Z,20.90
2019-02-18T14:00:01.086Z,20.40
2019-02-18T14:02:08.284Z,20.70
2019-02-18T14:04:13.730Z,21.00
2019-02-18T14:06:19.471Z,21.20
2019-02-18T14:08:26.889Z,21.30
2019-02-18T14:10:32.345Z,21.30
2019-02-18T14:12:37.611Z,20.60
2019-02-18T14:14:49.137Z,20.00
2019-02-18T14:16:54.418Z,20.80
2019-02-18T14:18:59.639Z,21.10
2019-02-18T14:21:07.017Z,20.50
2019-02-18T14:23:12.350Z,20.60
2019-02-18T14:25:17.566Z,21.10
2019-02-18T14:27:23.146Z,20.60
2019-02-18T14:29:28.520Z,20.70
2019-02-18T14:31:34.978Z,20.50
2019-02-18T14:33:40.194Z,21.40
2019-02-18T14:35:45.521Z,21.70
2019-02-18T14:37:50.886Z,21.80
2019-02-18T14:39:56.317Z,21.70
2019-02-18T14:42:01.869Z,21.50
2019-02-18T14:44:07.231Z,21.20
2019-02-18T14:46:13.504Z,20.70
2019-02-18T14:48:19.505Z,20.00
2019-02-18T14:50:24.770Z,19.70
2019-02-18T14:52:30.766Z,19.50
2019-02-18T14:54:36.069Z,18.40
2019-02-18T14:56:42.864Z,17.20
2019-02-18T14:58:48.336Z,16.40
2019-02-18T15:00:53.570Z,16.20
2019-02-18T15:02:59.010Z,15.40
2019-02-18T15:05:07.757Z,15.00
2019-02-18T15:07:13.754Z,15.90
2019-02-18T15:09:19.426Z,15.40
2019-02-18T15:11:24.656Z,15.30
2019-02-18T15:13:30.321Z,15.70
2019-02-18T15:15:35.638Z,14.40
2019-02-18T15:17:41.313Z,12.70
2019-02-18T15:19:47.990Z,11.80
2019-02-18T15:21:53.477Z,11.20
2019-02-18T15:23:59.147Z,10.80
2019-02-18T15:26:04.766Z,10.50
2019-02-18T15:28:10.271Z,10.40
2019-02-18T15:30:17.397Z,10.30
2019-02-18T15:32:25.711Z,10.10
2019-02-18T15:34:31.226Z,10.00
2019-02-18T15:36:36.817Z,9.80
2019-02-18T15:38:42.372Z,9.60
2019-02-18T15:40:48.006Z,9.50
2019-02-18T15:42:53.953Z,9.00
2019-02-18T15:44:59.532Z,8.80
2019-02-18T15:47:05.077Z,8.60
2019-02-18T15:49:12.477Z,8.30
2019-02-18T15:51:17.976Z,8.10
2019-02-18T15:53:23.813Z,8.00
2019-02-18T15:55:29.679Z,7.60
2019-02-18T15:57:35.210Z,7.50
2019-02-18T15:59:40.833Z,7.50
2019-02-18T16:01:48.465Z,7.50
2019-02-18T16:03:54.967Z,7.50
2019-02-18T16:06:00.459Z,7.40
2019-02-18T16:08:06.057Z,7.20
2019-02-18T16:10:11.646Z,7.10
2019-02-18T16:12:17.166Z,7.10
2019-02-18T16:14:26.658Z,7.00
2019-02-18T16:16:32.138Z,6.70
2019-02-18T16:18:37.910Z,6.70
2019-02-18T16:20:43.605Z,6.40
2019-02-18T16:22:49.310Z,6.30
2019-02-18T16:24:55.349Z,6.20
2019-02-18T16:27:02.341Z,6.10
2019-02-18T16:29:07.803Z,6.00
2019-02-18T16:31:13.413Z,5.90
2019-02-18T16:33:19.630Z,5.60
2019-02-18T16:35:25.093Z,5.50
2019-02-18T16:37:30.808Z,5.30
2019-02-18T16:39:37.186Z,5.10
2019-02-18T16:41:43.473Z,4.90
2019-02-18T16:43:48.998Z,4.80
2019-02-18T16:45:57.821Z,4.70
2019-02-18T16:48:03.506Z,4.60
2019-02-18T16:50:09.743Z,4.60
2019-02-18T16:52:15.640Z,4.50
2019-02-18T16:54:21.573Z,4.30
2019-02-18T16:56:27.011Z,4.20
2019-02-18T16:58:33.448Z,4.20
2019-02-18T17:00:39.194Z,4.10
2019-02-18T17:02:45.034Z,4.10
2019-02-18T17:04:50.525Z,4.00
2019-02-18T17:06:56.013Z,3.90
2019-02-18T17:09:01.819Z,3.70
2019-02-18T17:17:02.490Z,3.60
2019-02-18T17:19:09.461Z,3.50
2019-02-18T17:21:14.879Z,3.40
2019-02-18T17:23:20.434Z,3.30
2019-02-18T17:25:26.086Z,3.30
2019-02-18T17:27:33.105Z,3.30
2019-02-18T17:29:38.894Z,3.10
2019-02-18T17:31:44.522Z,3.00
2019-02-18T17:33:50.301Z,3.10
2019-02-18T17:35:57.486Z,3.00
2019-02-18T17:38:04.846Z,2.90
2019-02-18T17:40:12.573Z,2.80
2019-02-18T17:42:18.695Z,2.80
2019-02-18T17:44:26.266Z,2.70
2019-02-18T17:46:32.245Z,2.80
2019-02-18T17:48:40.794Z,2.70
2019-02-18T17:50:53.406Z,2.60
2019-02-18T17:52:59.397Z,2.70
2019-02-18T17:55:05.457Z,2.70
2019-02-18T17:57:11.010Z,2.60
2019-02-18T17:59:18.481Z,2.50
2019-02-18T18:01:24.853Z,2.40
2019-02-18T18:03:30.651Z,2.30
2019-02-18T18:05:37.219Z,2.40
2019-02-18T18:07:44.018Z,2.30
2019-02-18T18:09:49.597Z,2.20
2019-02-18T18:12:01.077Z,2.30
2019-02-18T18:14:06.797Z,2.30
2019-02-18T18:16:12.361Z,2.20
2019-02-18T18:18:20.086Z,2.20
2019-02-18T18:20:25.595Z,2.10
2019-02-18T18:22:31.622Z,2.10
2019-02-18T18:24:38.578Z,2.10
2019-02-18T18:26:45.330Z,2.20
2019-02-18T18:28:50.841Z,2.00
2019-02-18T18:30:57.381Z,1.90
2019-02-18T18:33:05.351Z,1.90
2019-02-18T18:35:12.071Z,1.90
2019-02-18T18:37:19.252Z,1.90
2019-02-18T18:39:28.043Z,1.80
2019-02-18T18:41:34.196Z,1.80
2019-02-18T18:43:46.201Z,1.80
2019-02-18T18:45:51.889Z,1.70
2019-02-18T18:47:57.557Z,1.60
2019-02-18T18:50:07.457Z,1.70
2019-02-18T18:52:13.088Z,1.70
2019-02-18T18:54:19.126Z,1.60
2019-02-18T18:56:24.990Z,1.60
2019-02-18T18:58:30.962Z,1.40
2019-02-18T19:03:41.121Z,1.30
2019-02-18T19:05:46.633Z,1.20
2019-02-18T19:07:53.157Z,1.30
2019-02-18T19:09:59.574Z,1.20
2019-02-18T19:12:05.714Z,1.20
2019-02-18T19:14:13.457Z,1.30
2019-02-18T19:16:19.204Z,1.30
2019-02-18T19:18:26.161Z,1.20
2019-02-18T19:20:32.540Z,1.10
2019-02-18T19:22:39.950Z,1.00
2019-02-18T19:24:46.013Z,0.90
2019-02-18T19:26:55.893Z,1.00
2019-02-18T19:29:01.733Z,1.00
2019-02-18T19:31:07.661Z,1.00
2019-02-18T19:33:13.105Z,0.90
2019-02-18T19:35:19.374Z,0.90
2019-02-18T19:37:25.094Z,0.90
2019-02-18T19:39:36.330Z,0.90
2019-02-18T19:41:44.644Z,0.90
2019-02-18T19:43:53.477Z,0.80
2019-02-18T19:45:59.332Z,0.80
2019-02-18T19:48:05.393Z,0.80
2019-02-18T19:50:11.297Z,0.80
2019-02-18T19:52:16.901Z,0.70
2019-02-18T19:54:22.886Z,0.70
2019-02-18T19:56:29.458Z,0.70
2019-02-18T19:58:34.962Z,0.70
2019-02-18T20:00:43.100Z,0.70
2019-02-18T20:02:53.149Z,0.60
2019-02-18T20:05:02.519Z,0.60
2019-02-18T20:07:08.979Z,0.50
2019-02-18T20:09:15.916Z,0.50
2019-02-18T20:11:21.938Z,0.50
2019-02-18T20:13:27.969Z,0.50
2019-02-18T20:15:33.689Z,0.40
2019-02-18T20:17:41.145Z,0.40
2019-02-18T20:19:50.325Z,0.40
2019-02-18T20:21:56.178Z,0.30
2019-02-18T20:24:01.948Z,0.30
2019-02-18T20:26:09.970Z,0.30
2019-02-18T20:28:15.925Z,0.20
2019-02-18T20:30:21.925Z,0.30
2019-02-18T20:32:27.594Z,0.30
2019-02-18T20:34:33.077Z,0.30
2019-02-18T20:36:38.474Z,0.30
2019-02-18T20:38:44.007Z,0.30
2019-02-18T20:40:49.854Z,0.30
2019-02-18T20:42:55.569Z,0.20
2019-02-18T20:45:02.070Z,0.20
2019-02-18T20:47:08.122Z,0.20
2019-02-18T20:49:14.166Z,0.10
2019-02-18T20:51:20.630Z,-0.10
2019-02-18T20:53:26.862Z,0.00
2019-02-18T20:55:32.662Z,0.00
2019-02-18T20:57:38.478Z,0.00
2019-02-18T20:59:44.181Z,0.10
2019-02-18T21:01:51.469Z,0.00
2019-02-18T21:03:58.028Z,0.00
2019-02-18T21:06:04.266Z,0.10
2019-02-18T21:08:09.778Z,0.00
2019-02-18T21:10:15.811Z,0.00
2019-02-18T21:12:21.534Z,0.00
2019-02-18T21:14:27.522Z,0.00
2019-02-18T21:16:35.673Z,0.10
2019-02-18T21:18:42.398Z,0.30
2019-02-18T21:20:47.902Z,0.20
2019-02-18T21:22:56.546Z,0.10
2019-02-18T21:25:02.030Z,0.10
2019-02-18T21:27:10.568Z,0.00
2019-02-18T21:29:22.471Z,-0.20
2019-02-18T21:31:28.221Z,-0.30
2019-02-18T21:33:33.736Z,-0.30
2019-02-18T21:35:41.847Z,-0.40
2019-02-18T21:37:47.433Z,-0.40
2019-02-18T21:39:52.858Z,-0.40
2019-02-18T21:41:58.822Z,-0.40
2019-02-18T21:44:04.286Z,-0.30
2019-02-18T21:46:09.798Z,-0.30
2019-02-18T21:48:15.978Z,-0.30
2019-02-18T21:50:21.501Z,-0.20
2019-02-18T21:52:27.685Z,-0.30
2019-02-18T21:54:33.473Z,-0.30
2019-02-18T21:56:39.029Z,-0.30
2019-02-18T21:58:44.720Z,-0.20
2019-02-18T22:00:50.178Z,-0.40
2019-02-18T22:02:55.649Z,-0.30
2019-02-18T22:05:01.154Z,-0.30
2019-02-18T22:07:07.213Z,-0.40
2019-02-18T22:09:12.758Z,-0.40
2019-02-18T22:11:18.206Z,-0.40
2019-02-18T22:13:23.788Z,-0.40
2019-02-18T22:15:29.400Z,-0.30
2019-02-18T22:17:35.411Z,-0.20
2019-02-18T22:19:41.930Z,-0.10
2019-02-18T22:21:47.587Z,0.10
2019-02-18T22:23:53.174Z,0.30
2019-02-18T22:25:59.496Z,0.40
2019-02-18T22:28:07.967Z,0.50
2019-02-18T22:30:14.551Z,0.40
2019-02-18T22:32:20.413Z,0.20
2019-02-18T22:34:27.093Z,0.20
2019-02-18T22:36:32.625Z,0.10
2019-02-18T22:38:39.179Z,0.20
2019-02-18T22:40:45.356Z,0.10
2019-02-18T22:42:51.737Z,0.10
2019-02-18T22:44:57.911Z,0.10
2019-02-18T22:47:04.838Z,0.10
2019-02-18T22:49:10.562Z,0.00
2019-02-18T22:51:16.190Z,0.10
2019-02-18T22:53:22.565Z,0.10
2019-02-18T22:55:28.441Z,0.20
2019-02-18T22:57:34.088Z,0.20
2019-02-18T22:59:39.565Z,0.10
2019-02-18T23:01:46.437Z,0.10
2019-02-18T23:03:51.974Z,0.10
2019-02-18T23:05:59.766Z,0.20
2019-02-18T23:08:05.515Z,0.10
2019-02-18T23:10:11.580Z,0.10
2019-02-18T23:12:17.771Z,0.40
2019-02-18T23:14:28.153Z,0.50
2019-02-18T23:16:44.721Z,0.30
2019-02-18T23:18:51.699Z,0.10
2019-02-18T23:20:57.705Z,0.00
2019-02-18T23:23:05.105Z,0.20
2019-02-18T23:25:14.297Z,0.10
2019-02-18T23:27:19.734Z,0.00
2019-02-18T23:29:25.174Z,0.00
2019-02-18T23:31:30.657Z,0.00
2019-02-18T23:33:36.147Z,0.30
2019-02-18T23:35:44.919Z,0.50
2019-02-18T23:37:52.317Z,0.30
2019-02-18T23:39:57.917Z,0.10
2019-02-18T23:42:05.070Z,0.20
2019-02-18T23:44:10.789Z,0.40
2019-02-18T23:46:16.525Z,0.40
2019-02-18T23:48:23.338Z,0.50
2019-02-18T23:50:31.449Z,0.50
2019-02-18T23:52:36.887Z,0.60
2019-02-18T23:54:42.435Z,0.70
2019-02-18T23:56:47.869Z,0.60
2019-02-18T23:58:53.268Z,0.70
